sensor_id;sensor_type;location;lat;lon;timestamp;P1;durP1;ratioP1;P2;durP2;ratioP2
28766;SDS011;15921;52.034;20.650;2024-03-02T00:00:21;72.03;;;33.30;;
28766;SDS011;15921;52.034;20.650;2024-03-02T00:02:48;71.53;;;33.47;;
28766;SDS011;15921;52.034;20.650;2024-03-02T00:05:15;68.15;;;32.88;;
28766;SDS011;15921;52.034;20.650;2024-03-02T00:07:56;69.22;;;31.80;;
28766;SDS011;15921;52.034;20.650;2024-03-02T00:10:24;64.97;;;32.55;;
28766;SDS011;15921;52.034;20.650;2024-03-02T00:12:57;73.38;;;34.25;;
28766;SDS011;15921;52.034;20.650;2024-03-02T00:17:55;74.33;;;35.53;;
28766;SDS011;15921;52.034;20.650;2024-03-02T00:20:22;73.57;;;35.33;;
28766;SDS011;15921;52.034;20.650;2024-03-02T00:22:48;81.20;;;35.70;;
28766;SDS011;15921;52.034;20.650;2024-03-02T00:25:15;75.22;;;35.28;;
28766;SDS011;15921;52.034;20.650;2024-03-02T00:27:41;73.97;;;36.13;;
28766;SDS011;15921;52.034;20.650;2024-03-02T00:30:27;76.50;;;35.20;;
28766;SDS011;15921;52.034;20.650;2024-03-02T00:33:00;79.03;;;35.30;;
28766;SDS011;15921;52.034;20.650;2024-03-02T00:35:26;81.22;;;36.88;;
28766;SDS011;15921;52.034;20.650;2024-03-02T00:37:52;84.07;;;38.45;;
28766;SDS011;15921;52.034;20.650;2024-03-02T00:40:17;81.28;;;37.10;;
28766;SDS011;15921;52.034;20.650;2024-03-02T00:42:44;82.00;;;37.28;;
28766;SDS011;15921;52.034;20.650;2024-03-02T00:45:10;78.18;;;35.08;;
28766;SDS011;15921;52.034;20.650;2024-03-02T00:47:39;76.40;;;35.22;;
28766;SDS011;15921;52.034;20.650;2024-03-02T00:50:05;83.47;;;37.40;;
28766;SDS011;15921;52.034;20.650;2024-03-02T00:52:31;76.43;;;34.75;;
28766;SDS011;15921;52.034;20.650;2024-03-02T00:54:58;79.90;;;36.58;;
28766;SDS011;15921;52.034;20.650;2024-03-02T00:57:24;81.75;;;36.35;;
28766;SDS011;15921;52.034;20.650;2024-03-02T00:59:51;75.45;;;33.80;;
28766;SDS011;15921;52.034;20.650;2024-03-02T01:02:17;77.85;;;35.08;;
28766;SDS011;15921;52.034;20.650;2024-03-02T01:04:45;84.03;;;37.53;;
28766;SDS011;15921;52.034;20.650;2024-03-02T01:07:10;78.40;;;35.25;;
28766;SDS011;15921;52.034;20.650;2024-03-02T01:09:36;81.13;;;38.25;;
28766;SDS011;15921;52.034;20.650;2024-03-02T01:12:02;85.30;;;36.50;;
28766;SDS011;15921;52.034;20.650;2024-03-02T01:14:28;87.88;;;37.92;;
28766;SDS011;15921;52.034;20.650;2024-03-02T01:16:54;92.25;;;38.60;;
28766;SDS011;15921;52.034;20.650;2024-03-02T01:19:20;81.18;;;36.90;;
28766;SDS011;15921;52.034;20.650;2024-03-02T01:21:46;83.25;;;36.85;;
28766;SDS011;15921;52.034;20.650;2024-03-02T01:24:11;80.20;;;36.17;;
28766;SDS011;15921;52.034;20.650;2024-03-02T01:26:38;81.90;;;35.35;;
28766;SDS011;15921;52.034;20.650;2024-03-02T01:29:04;81.88;;;36.25;;
28766;SDS011;15921;52.034;20.650;2024-03-02T01:31:29;77.63;;;36.80;;
28766;SDS011;15921;52.034;20.650;2024-03-02T01:33:55;84.20;;;35.28;;
28766;SDS011;15921;52.034;20.650;2024-03-02T01:36:21;81.07;;;37.80;;
28766;SDS011;15921;52.034;20.650;2024-03-02T01:38:46;81.97;;;37.63;;
28766;SDS011;15921;52.034;20.650;2024-03-02T01:41:12;84.85;;;35.83;;
28766;SDS011;15921;52.034;20.650;2024-03-02T01:43:38;83.82;;;35.40;;
28766;SDS011;15921;52.034;20.650;2024-03-02T01:46:04;83.55;;;37.90;;
28766;SDS011;15921;52.034;20.650;2024-03-02T01:48:30;82.47;;;36.30;;
28766;SDS011;15921;52.034;20.650;2024-03-02T01:50:55;85.47;;;35.42;;
28766;SDS011;15921;52.034;20.650;2024-03-02T01:53:21;83.13;;;35.72;;
28766;SDS011;15921;52.034;20.650;2024-03-02T01:55:47;83.75;;;35.53;;
28766;SDS011;15921;52.034;20.650;2024-03-02T01:58:13;90.53;;;36.53;;
28766;SDS011;15921;52.034;20.650;2024-03-02T02:00:38;74.13;;;33.03;;
28766;SDS011;15921;52.034;20.650;2024-03-02T02:03:04;81.38;;;34.90;;
28766;SDS011;15921;52.034;20.650;2024-03-02T02:05:31;76.22;;;34.22;;
28766;SDS011;15921;52.034;20.650;2024-03-02T02:07:58;74.95;;;34.28;;
28766;SDS011;15921;52.034;20.650;2024-03-02T02:10:24;75.40;;;34.45;;
28766;SDS011;15921;52.034;20.650;2024-03-02T02:12:49;68.78;;;33.35;;
28766;SDS011;15921;52.034;20.650;2024-03-02T02:15:25;71.10;;;33.30;;
28766;SDS011;15921;52.034;20.650;2024-03-02T02:17:51;67.10;;;31.30;;
28766;SDS011;15921;52.034;20.650;2024-03-02T02:20:18;73.20;;;32.70;;
28766;SDS011;15921;52.034;20.650;2024-03-02T02:22:59;66.15;;;32.85;;
28766;SDS011;15921;52.034;20.650;2024-03-02T02:25:27;72.10;;;34.60;;
28766;SDS011;15921;52.034;20.650;2024-03-02T02:27:53;70.53;;;32.40;;
28766;SDS011;15921;52.034;20.650;2024-03-02T02:30:27;67.65;;;32.10;;
28766;SDS011;15921;52.034;20.650;2024-03-02T02:32:54;71.20;;;33.45;;
28766;SDS011;15921;52.034;20.650;2024-03-02T02:35:20;63.78;;;32.05;;
28766;SDS011;15921;52.034;20.650;2024-03-02T02:37:47;68.22;;;32.40;;
28766;SDS011;15921;52.034;20.650;2024-03-02T02:40:14;69.47;;;32.20;;
28766;SDS011;15921;52.034;20.650;2024-03-02T02:42:40;69.15;;;34.78;;
28766;SDS011;15921;52.034;20.650;2024-03-02T02:45:06;69.30;;;32.83;;
28766;SDS011;15921;52.034;20.650;2024-03-02T02:47:32;68.32;;;32.67;;
28766;SDS011;15921;52.034;20.650;2024-03-02T02:50:03;61.88;;;31.70;;
28766;SDS011;15921;52.034;20.650;2024-03-02T02:52:32;72.53;;;31.48;;
28766;SDS011;15921;52.034;20.650;2024-03-02T02:54:58;66.60;;;31.15;;
28766;SDS011;15921;52.034;20.650;2024-03-02T02:57:24;65.35;;;31.08;;
28766;SDS011;15921;52.034;20.650;2024-03-02T02:59:50;64.72;;;30.90;;
28766;SDS011;15921;52.034;20.650;2024-03-02T03:02:16;61.40;;;29.55;;
28766;SDS011;15921;52.034;20.650;2024-03-02T03:04:41;62.67;;;30.00;;
28766;SDS011;15921;52.034;20.650;2024-03-02T03:07:07;59.60;;;29.60;;
28766;SDS011;15921;52.034;20.650;2024-03-02T03:09:33;74.30;;;31.70;;
28766;SDS011;15921;52.034;20.650;2024-03-02T03:12:02;64.63;;;30.85;;
28766;SDS011;15921;52.034;20.650;2024-03-02T03:14:28;64.95;;;29.77;;
28766;SDS011;15921;52.034;20.650;2024-03-02T03:16:53;61.95;;;29.50;;
28766;SDS011;15921;52.034;20.650;2024-03-02T03:19:19;66.13;;;28.17;;
28766;SDS011;15921;52.034;20.650;2024-03-02T03:21:45;64.72;;;28.88;;
28766;SDS011;15921;52.034;20.650;2024-03-02T03:24:10;68.65;;;30.00;;
28766;SDS011;15921;52.034;20.650;2024-03-02T03:26:36;64.75;;;30.58;;
28766;SDS011;15921;52.034;20.650;2024-03-02T03:29:02;72.28;;;32.55;;
28766;SDS011;15921;52.034;20.650;2024-03-02T03:31:28;60.47;;;30.67;;
28766;SDS011;15921;52.034;20.650;2024-03-02T03:33:54;63.60;;;30.15;;
28766;SDS011;15921;52.034;20.650;2024-03-02T03:36:20;61.63;;;31.00;;
28766;SDS011;15921;52.034;20.650;2024-03-02T03:38:45;66.80;;;31.08;;
28766;SDS011;15921;52.034;20.650;2024-03-02T03:41:11;64.88;;;31.45;;
28766;SDS011;15921;52.034;20.650;2024-03-02T03:43:37;63.53;;;30.33;;
28766;SDS011;15921;52.034;20.650;2024-03-02T03:46:03;61.28;;;30.02;;
28766;SDS011;15921;52.034;20.650;2024-03-02T03:48:29;67.88;;;31.77;;
28766;SDS011;15921;52.034;20.650;2024-03-02T03:50:56;67.10;;;31.30;;
28766;SDS011;15921;52.034;20.650;2024-03-02T03:53:22;67.18;;;31.88;;
28766;SDS011;15921;52.034;20.650;2024-03-02T03:55:49;62.47;;;29.70;;
28766;SDS011;15921;52.034;20.650;2024-03-02T03:58:15;73.13;;;32.00;;
28766;SDS011;15921;52.034;20.650;2024-03-02T04:00:42;69.80;;;31.48;;
28766;SDS011;15921;52.034;20.650;2024-03-02T04:03:08;72.95;;;32.95;;
28766;SDS011;15921;52.034;20.650;2024-03-02T04:05:34;71.78;;;32.47;;
28766;SDS011;15921;52.034;20.650;2024-03-02T04:07:59;72.95;;;32.45;;
28766;SDS011;15921;52.034;20.650;2024-03-02T04:10:26;64.95;;;30.40;;
28766;SDS011;15921;52.034;20.650;2024-03-02T04:12:52;72.07;;;34.97;;
28766;SDS011;15921;52.034;20.650;2024-03-02T04:15:17;77.35;;;35.47;;
28766;SDS011;15921;52.034;20.650;2024-03-02T04:17:43;82.78;;;35.20;;
28766;SDS011;15921;52.034;20.650;2024-03-02T04:20:09;76.13;;;34.10;;
28766;SDS011;15921;52.034;20.650;2024-03-02T04:22:37;75.35;;;34.97;;
28766;SDS011;15921;52.034;20.650;2024-03-02T04:25:03;84.32;;;34.58;;
28766;SDS011;15921;52.034;20.650;2024-03-02T04:27:32;82.65;;;35.78;;
28766;SDS011;15921;52.034;20.650;2024-03-02T04:30:01;83.57;;;37.13;;
28766;SDS011;15921;52.034;20.650;2024-03-02T04:32:27;85.32;;;36.65;;
28766;SDS011;15921;52.034;20.650;2024-03-02T04:34:53;89.47;;;36.88;;
28766;SDS011;15921;52.034;20.650;2024-03-02T04:37:19;80.57;;;34.67;;
28766;SDS011;15921;52.034;20.650;2024-03-02T04:39:45;78.32;;;34.38;;
28766;SDS011;15921;52.034;20.650;2024-03-02T04:42:11;89.57;;;37.05;;
28766;SDS011;15921;52.034;20.650;2024-03-02T04:44:36;80.53;;;33.20;;
28766;SDS011;15921;52.034;20.650;2024-03-02T04:47:03;123.82;;;55.35;;
28766;SDS011;15921;52.034;20.650;2024-03-02T04:49:29;98.03;;;41.15;;
28766;SDS011;15921;52.034;20.650;2024-03-02T04:51:55;97.78;;;43.70;;
28766;SDS011;15921;52.034;20.650;2024-03-02T04:54:22;91.93;;;37.95;;
28766;SDS011;15921;52.034;20.650;2024-03-02T04:56:48;90.53;;;37.97;;
28766;SDS011;15921;52.034;20.650;2024-03-02T04:59:17;89.55;;;36.25;;
28766;SDS011;15921;52.034;20.650;2024-03-02T05:01:43;86.22;;;36.83;;
28766;SDS011;15921;52.034;20.650;2024-03-02T05:04:09;91.43;;;36.45;;
28766;SDS011;15921;52.034;20.650;2024-03-02T05:06:38;85.32;;;36.28;;
28766;SDS011;15921;52.034;20.650;2024-03-02T05:09:08;96.60;;;38.60;;
28766;SDS011;15921;52.034;20.650;2024-03-02T05:11:34;90.28;;;38.05;;
28766;SDS011;15921;52.034;20.650;2024-03-02T05:14:06;103.43;;;40.30;;
28766;SDS011;15921;52.034;20.650;2024-03-02T05:16:32;91.10;;;37.03;;
28766;SDS011;15921;52.034;20.650;2024-03-02T05:19:05;143.85;;;52.90;;
28766;SDS011;15921;52.034;20.650;2024-03-02T05:21:34;115.65;;;45.42;;
28766;SDS011;15921;52.034;20.650;2024-03-02T05:23:59;123.03;;;48.40;;
28766;SDS011;15921;52.034;20.650;2024-03-02T05:26:25;110.13;;;43.00;;
28766;SDS011;15921;52.034;20.650;2024-03-02T05:28:51;110.70;;;41.42;;
28766;SDS011;15921;52.034;20.650;2024-03-02T05:31:21;106.18;;;39.42;;
28766;SDS011;15921;52.034;20.650;2024-03-02T05:33:47;108.90;;;43.25;;
28766;SDS011;15921;52.034;20.650;2024-03-02T05:36:14;113.10;;;41.08;;
28766;SDS011;15921;52.034;20.650;2024-03-02T05:38:39;116.50;;;41.10;;
28766;SDS011;15921;52.034;20.650;2024-03-02T05:41:05;114.05;;;41.22;;
28766;SDS011;15921;52.034;20.650;2024-03-02T05:43:31;114.40;;;42.05;;
28766;SDS011;15921;52.034;20.650;2024-03-02T05:45:56;117.43;;;42.60;;
28766;SDS011;15921;52.034;20.650;2024-03-02T05:48:22;107.97;;;38.65;;
28766;SDS011;15921;52.034;20.650;2024-03-02T05:50:48;113.18;;;38.08;;
28766;SDS011;15921;52.034;20.650;2024-03-02T05:53:13;123.15;;;43.72;;
28766;SDS011;15921;52.034;20.650;2024-03-02T05:55:40;110.38;;;41.15;;
28766;SDS011;15921;52.034;20.650;2024-03-02T05:58:06;117.28;;;39.88;;
28766;SDS011;15921;52.034;20.650;2024-03-02T06:00:32;113.90;;;42.17;;
28766;SDS011;15921;52.034;20.650;2024-03-02T06:02:58;113.10;;;42.55;;
28766;SDS011;15921;52.034;20.650;2024-03-02T06:05:24;118.15;;;41.53;;
28766;SDS011;15921;52.034;20.650;2024-03-02T06:07:50;120.30;;;42.25;;
28766;SDS011;15921;52.034;20.650;2024-03-02T06:10:16;123.05;;;46.13;;
28766;SDS011;15921;52.034;20.650;2024-03-02T06:12:42;115.28;;;43.05;;
28766;SDS011;15921;52.034;20.650;2024-03-02T06:15:08;110.65;;;43.25;;
28766;SDS011;15921;52.034;20.650;2024-03-02T06:17:36;124.63;;;43.40;;
28766;SDS011;15921;52.034;20.650;2024-03-02T06:20:01;122.57;;;42.58;;
28766;SDS011;15921;52.034;20.650;2024-03-02T06:22:28;113.10;;;42.22;;
28766;SDS011;15921;52.034;20.650;2024-03-02T06:24:54;116.00;;;41.67;;
28766;SDS011;15921;52.034;20.650;2024-03-02T06:27:20;117.78;;;43.90;;
28766;SDS011;15921;52.034;20.650;2024-03-02T06:29:45;128.32;;;44.22;;
28766;SDS011;15921;52.034;20.650;2024-03-02T06:32:11;132.65;;;45.25;;
28766;SDS011;15921;52.034;20.650;2024-03-02T06:34:37;128.90;;;43.55;;
28766;SDS011;15921;52.034;20.650;2024-03-02T06:37:02;131.02;;;46.05;;
28766;SDS011;15921;52.034;20.650;2024-03-02T06:39:28;114.22;;;43.78;;
28766;SDS011;15921;52.034;20.650;2024-03-02T06:41:56;128.38;;;43.80;;
28766;SDS011;15921;52.034;20.650;2024-03-02T06:44:21;126.50;;;41.95;;
28766;SDS011;15921;52.034;20.650;2024-03-02T06:46:47;133.90;;;45.97;;
28766;SDS011;15921;52.034;20.650;2024-03-02T06:49:13;126.13;;;44.55;;
28766;SDS011;15921;52.034;20.650;2024-03-02T06:51:38;125.40;;;45.95;;
28766;SDS011;15921;52.034;20.650;2024-03-02T06:54:04;131.88;;;44.72;;
28766;SDS011;15921;52.034;20.650;2024-03-02T06:56:30;132.52;;;47.17;;
28766;SDS011;15921;52.034;20.650;2024-03-02T06:58:58;140.25;;;47.55;;
28766;SDS011;15921;52.034;20.650;2024-03-02T07:01:23;134.88;;;48.15;;
28766;SDS011;15921;52.034;20.650;2024-03-02T07:03:51;131.27;;;46.58;;
28766;SDS011;15921;52.034;20.650;2024-03-02T07:06:17;140.73;;;47.85;;
28766;SDS011;15921;52.034;20.650;2024-03-02T07:08:43;126.05;;;47.03;;
28766;SDS011;15921;52.034;20.650;2024-03-02T07:11:08;134.35;;;45.85;;
28766;SDS011;15921;52.034;20.650;2024-03-02T07:13:34;133.27;;;46.05;;
28766;SDS011;15921;52.034;20.650;2024-03-02T07:16:00;128.35;;;45.88;;
28766;SDS011;15921;52.034;20.650;2024-03-02T07:18:26;122.15;;;43.22;;
28766;SDS011;15921;52.034;20.650;2024-03-02T07:20:52;116.13;;;42.97;;
28766;SDS011;15921;52.034;20.650;2024-03-02T07:23:17;111.47;;;43.50;;
28766;SDS011;15921;52.034;20.650;2024-03-02T07:25:44;121.03;;;44.70;;
28766;SDS011;15921;52.034;20.650;2024-03-02T07:28:10;108.80;;;40.55;;
28766;SDS011;15921;52.034;20.650;2024-03-02T07:30:36;106.82;;;42.10;;
28766;SDS011;15921;52.034;20.650;2024-03-02T07:33:03;104.28;;;40.47;;
28766;SDS011;15921;52.034;20.650;2024-03-02T07:35:29;109.22;;;41.15;;
28766;SDS011;15921;52.034;20.650;2024-03-02T07:37:56;104.55;;;40.45;;
28766;SDS011;15921;52.034;20.650;2024-03-02T07:40:23;104.40;;;40.80;;
28766;SDS011;15921;52.034;20.650;2024-03-02T07:42:49;92.20;;;39.30;;
28766;SDS011;15921;52.034;20.650;2024-03-02T07:45:15;99.03;;;39.50;;
28766;SDS011;15921;52.034;20.650;2024-03-02T07:47:40;100.97;;;38.42;;
28766;SDS011;15921;52.034;20.650;2024-03-02T07:50:06;92.78;;;39.95;;
28766;SDS011;15921;52.034;20.650;2024-03-02T07:52:32;91.95;;;37.80;;
28766;SDS011;15921;52.034;20.650;2024-03-02T07:54:58;91.15;;;36.80;;
28766;SDS011;15921;52.034;20.650;2024-03-02T07:57:24;100.22;;;39.60;;
28766;SDS011;15921;52.034;20.650;2024-03-02T07:59:50;92.95;;;38.65;;
28766;SDS011;15921;52.034;20.650;2024-03-02T08:02:16;98.97;;;39.85;;
28766;SDS011;15921;52.034;20.650;2024-03-02T08:04:42;82.63;;;35.53;;
28766;SDS011;15921;52.034;20.650;2024-03-02T08:07:08;84.82;;;35.80;;
28766;SDS011;15921;52.034;20.650;2024-03-02T08:09:34;87.45;;;34.88;;
28766;SDS011;15921;52.034;20.650;2024-03-02T08:12:00;79.88;;;34.85;;
28766;SDS011;15921;52.034;20.650;2024-03-02T08:14:26;84.15;;;34.88;;
28766;SDS011;15921;52.034;20.650;2024-03-02T08:16:51;85.50;;;36.72;;
28766;SDS011;15921;52.034;20.650;2024-03-02T08:19:17;80.22;;;35.15;;
28766;SDS011;15921;52.034;20.650;2024-03-02T08:21:43;78.82;;;34.60;;
28766;SDS011;15921;52.034;20.650;2024-03-02T08:24:09;73.15;;;33.95;;
28766;SDS011;15921;52.034;20.650;2024-03-02T08:26:35;80.95;;;33.67;;
28766;SDS011;15921;52.034;20.650;2024-03-02T08:29:01;80.13;;;33.72;;
28766;SDS011;15921;52.034;20.650;2024-03-02T08:31:28;80.90;;;33.35;;
28766;SDS011;15921;52.034;20.650;2024-03-02T08:33:54;82.80;;;35.28;;
28766;SDS011;15921;52.034;20.650;2024-03-02T08:36:21;85.30;;;34.10;;
28766;SDS011;15921;52.034;20.650;2024-03-02T08:38:48;78.50;;;33.55;;
28766;SDS011;15921;52.034;20.650;2024-03-02T08:41:14;72.72;;;33.38;;
28766;SDS011;15921;52.034;20.650;2024-03-02T08:43:41;76.68;;;33.80;;
28766;SDS011;15921;52.034;20.650;2024-03-02T08:46:07;83.10;;;35.63;;
28766;SDS011;15921;52.034;20.650;2024-03-02T08:48:33;73.68;;;34.03;;
28766;SDS011;15921;52.034;20.650;2024-03-02T08:50:59;85.85;;;35.45;;
28766;SDS011;15921;52.034;20.650;2024-03-02T08:53:25;79.03;;;34.45;;
28766;SDS011;15921;52.034;20.650;2024-03-02T08:55:51;68.82;;;31.98;;
28766;SDS011;15921;52.034;20.650;2024-03-02T08:58:17;74.93;;;33.92;;
28766;SDS011;15921;52.034;20.650;2024-03-02T09:00:43;73.20;;;32.63;;
28766;SDS011;15921;52.034;20.650;2024-03-02T09:03:09;85.20;;;35.85;;
28766;SDS011;15921;52.034;20.650;2024-03-02T09:05:35;79.65;;;34.38;;
28766;SDS011;15921;52.034;20.650;2024-03-02T09:08:01;78.85;;;35.42;;
28766;SDS011;15921;52.034;20.650;2024-03-02T09:10:28;81.00;;;34.97;;
28766;SDS011;15921;52.034;20.650;2024-03-02T09:12:54;88.00;;;36.20;;
28766;SDS011;15921;52.034;20.650;2024-03-02T09:15:20;76.95;;;33.92;;
28766;SDS011;15921;52.034;20.650;2024-03-02T09:17:47;85.90;;;37.10;;
28766;SDS011;15921;52.034;20.650;2024-03-02T09:20:12;84.00;;;36.55;;
28766;SDS011;15921;52.034;20.650;2024-03-02T09:22:39;86.28;;;36.58;;
28766;SDS011;15921;52.034;20.650;2024-03-02T09:25:04;82.78;;;35.83;;
28766;SDS011;15921;52.034;20.650;2024-03-02T09:27:36;81.13;;;33.78;;
28766;SDS011;15921;52.034;20.650;2024-03-02T09:30:03;72.70;;;32.50;;
28766;SDS011;15921;52.034;20.650;2024-03-02T09:32:32;81.45;;;35.35;;
28766;SDS011;15921;52.034;20.650;2024-03-02T09:34:58;79.72;;;36.10;;
28766;SDS011;15921;52.034;20.650;2024-03-02T09:37:23;76.57;;;33.88;;
28766;SDS011;15921;52.034;20.650;2024-03-02T09:39:49;66.95;;;31.35;;
28766;SDS011;15921;52.034;20.650;2024-03-02T09:42:15;75.22;;;33.53;;
28766;SDS011;15921;52.034;20.650;2024-03-02T09:44:41;74.70;;;32.60;;
28766;SDS011;15921;52.034;20.650;2024-03-02T09:47:07;74.32;;;33.47;;
28766;SDS011;15921;52.034;20.650;2024-03-02T09:49:34;81.28;;;34.80;;
28766;SDS011;15921;52.034;20.650;2024-03-02T09:52:00;73.72;;;34.20;;
28766;SDS011;15921;52.034;20.650;2024-03-02T09:54:28;80.78;;;35.25;;
28766;SDS011;15921;52.034;20.650;2024-03-02T09:56:54;76.45;;;33.90;;
28766;SDS011;15921;52.034;20.650;2024-03-02T09:59:20;74.47;;;33.45;;
28766;SDS011;15921;52.034;20.650;2024-03-02T10:01:55;76.50;;;34.40;;
28766;SDS011;15921;52.034;20.650;2024-03-02T10:04:24;75.90;;;33.72;;
28766;SDS011;15921;52.034;20.650;2024-03-02T10:06:51;73.53;;;32.58;;
28766;SDS011;15921;52.034;20.650;2024-03-02T10:09:34;73.30;;;32.47;;
28766;SDS011;15921;52.034;20.650;2024-03-02T10:12:06;76.47;;;34.97;;
28766;SDS011;15921;52.034;20.650;2024-03-02T10:14:33;75.75;;;35.53;;
28766;SDS011;15921;52.034;20.650;2024-03-02T10:17:03;76.00;;;33.78;;
28766;SDS011;15921;52.034;20.650;2024-03-02T10:19:31;70.03;;;31.52;;
28766;SDS011;15921;52.034;20.650;2024-03-02T10:22:00;72.05;;;31.27;;
28766;SDS011;15921;52.034;20.650;2024-03-02T10:24:28;72.45;;;34.45;;
28766;SDS011;15921;52.034;20.650;2024-03-02T10:27:10;71.53;;;33.33;;
28766;SDS011;15921;52.034;20.650;2024-03-02T10:29:40;65.78;;;30.58;;
28766;SDS011;15921;52.034;20.650;2024-03-02T10:32:09;70.30;;;30.50;;
28766;SDS011;15921;52.034;20.650;2024-03-02T10:34:36;65.75;;;30.00;;
28766;SDS011;15921;52.034;20.650;2024-03-02T10:37:05;55.95;;;27.85;;
28766;SDS011;15921;52.034;20.650;2024-03-02T10:39:32;67.55;;;31.50;;
28766;SDS011;15921;52.034;20.650;2024-03-02T10:42:00;63.05;;;29.38;;
28766;SDS011;15921;52.034;20.650;2024-03-02T10:44:28;63.50;;;27.80;;
28766;SDS011;15921;52.034;20.650;2024-03-02T10:46:55;58.40;;;27.20;;
28766;SDS011;15921;52.034;20.650;2024-03-02T10:49:22;63.13;;;30.27;;
28766;SDS011;15921;52.034;20.650;2024-03-02T10:51:49;63.58;;;28.15;;
28766;SDS011;15921;52.034;20.650;2024-03-02T10:54:15;65.53;;;28.77;;
28766;SDS011;15921;52.034;20.650;2024-03-02T10:56:44;61.63;;;28.63;;
28766;SDS011;15921;52.034;20.650;2024-03-02T11:02:04;69.32;;;28.23;;
28766;SDS011;15921;52.034;20.650;2024-03-02T11:04:32;63.95;;;29.15;;
28766;SDS011;15921;52.034;20.650;2024-03-02T11:07:06;65.05;;;29.35;;
28766;SDS011;15921;52.034;20.650;2024-03-02T11:09:35;60.95;;;28.83;;
28766;SDS011;15921;52.034;20.650;2024-03-02T11:14:37;62.80;;;29.57;;
28766;SDS011;15921;52.034;20.650;2024-03-02T11:17:08;59.63;;;27.00;;
28766;SDS011;15921;52.034;20.650;2024-03-02T11:19:36;60.08;;;27.02;;
28766;SDS011;15921;52.034;20.650;2024-03-02T11:22:04;59.03;;;27.63;;
28766;SDS011;15921;52.034;20.650;2024-03-02T11:24:31;55.28;;;26.67;;
28766;SDS011;15921;52.034;20.650;2024-03-02T11:27:01;49.22;;;26.15;;
28766;SDS011;15921;52.034;20.650;2024-03-02T11:32:02;58.20;;;27.13;;
28766;SDS011;15921;52.034;20.650;2024-03-02T11:34:30;54.30;;;25.67;;
28766;SDS011;15921;52.034;20.650;2024-03-02T11:36:57;64.38;;;27.85;;
28766;SDS011;15921;52.034;20.650;2024-03-02T11:39:24;57.25;;;26.90;;
28766;SDS011;15921;52.034;20.650;2024-03-02T11:41:51;51.75;;;24.95;;
28766;SDS011;15921;52.034;20.650;2024-03-02T11:44:17;49.47;;;25.10;;
28766;SDS011;15921;52.034;20.650;2024-03-02T11:46:44;54.25;;;25.70;;
28766;SDS011;15921;52.034;20.650;2024-03-02T11:49:14;48.83;;;23.17;;
28766;SDS011;15921;52.034;20.650;2024-03-02T11:51:50;55.17;;;24.52;;
28766;SDS011;15921;52.034;20.650;2024-03-02T11:54:26;55.83;;;26.35;;
28766;SDS011;15921;52.034;20.650;2024-03-02T11:56:57;59.40;;;26.38;;
28766;SDS011;15921;52.034;20.650;2024-03-02T11:59:25;51.33;;;24.80;;
28766;SDS011;15921;52.034;20.650;2024-03-02T12:01:52;54.50;;;25.38;;
28766;SDS011;15921;52.034;20.650;2024-03-02T12:04:18;57.10;;;24.45;;
28766;SDS011;15921;52.034;20.650;2024-03-02T12:06:44;53.90;;;24.42;;
28766;SDS011;15921;52.034;20.650;2024-03-02T12:09:11;48.95;;;24.20;;
28766;SDS011;15921;52.034;20.650;2024-03-02T12:11:39;51.20;;;25.67;;
28766;SDS011;15921;52.034;20.650;2024-03-02T12:14:10;59.30;;;27.40;;
28766;SDS011;15921;52.034;20.650;2024-03-02T12:16:38;50.28;;;26.08;;
28766;SDS011;15921;52.034;20.650;2024-03-02T12:19:05;52.65;;;26.05;;
28766;SDS011;15921;52.034;20.650;2024-03-02T12:21:31;57.45;;;26.48;;
28766;SDS011;15921;52.034;20.650;2024-03-02T12:23:57;51.05;;;25.25;;
28766;SDS011;15921;52.034;20.650;2024-03-02T12:26:23;52.25;;;25.75;;
28766;SDS011;15921;52.034;20.650;2024-03-02T12:28:49;46.10;;;23.30;;
28766;SDS011;15921;52.034;20.650;2024-03-02T12:31:15;47.53;;;24.10;;
28766;SDS011;15921;52.034;20.650;2024-03-02T12:33:41;58.92;;;25.40;;
28766;SDS011;15921;52.034;20.650;2024-03-02T12:36:09;49.13;;;24.40;;
28766;SDS011;15921;52.034;20.650;2024-03-02T12:38:42;48.35;;;24.17;;
28766;SDS011;15921;52.034;20.650;2024-03-02T12:41:09;54.47;;;24.33;;
28766;SDS011;15921;52.034;20.650;2024-03-02T12:43:34;49.95;;;23.48;;
28766;SDS011;15921;52.034;20.650;2024-03-02T12:46:00;48.80;;;25.30;;
28766;SDS011;15921;52.034;20.650;2024-03-02T12:48:26;51.50;;;25.67;;
28766;SDS011;15921;52.034;20.650;2024-03-02T12:50:52;48.63;;;23.58;;
28766;SDS011;15921;52.034;20.650;2024-03-02T12:53:18;51.05;;;24.02;;
28766;SDS011;15921;52.034;20.650;2024-03-02T12:55:43;56.40;;;26.90;;
28766;SDS011;15921;52.034;20.650;2024-03-02T12:58:16;55.35;;;27.30;;
28766;SDS011;15921;52.034;20.650;2024-03-02T13:00:44;56.33;;;27.45;;
28766;SDS011;15921;52.034;20.650;2024-03-02T13:03:09;54.30;;;26.90;;
28766;SDS011;15921;52.034;20.650;2024-03-02T13:05:36;48.90;;;25.50;;
28766;SDS011;15921;52.034;20.650;2024-03-02T13:08:02;47.70;;;23.05;;
28766;SDS011;15921;52.034;20.650;2024-03-02T13:10:30;50.88;;;25.80;;
28766;SDS011;15921;52.034;20.650;2024-03-02T13:12:57;50.38;;;24.83;;
28766;SDS011;15921;52.034;20.650;2024-03-02T13:15:22;49.15;;;25.23;;
28766;SDS011;15921;52.034;20.650;2024-03-02T13:17:48;56.92;;;26.23;;
28766;SDS011;15921;52.034;20.650;2024-03-02T13:20:14;52.55;;;25.15;;
28766;SDS011;15921;52.034;20.650;2024-03-02T13:22:42;54.38;;;24.52;;
28766;SDS011;15921;52.034;20.650;2024-03-02T13:25:08;54.67;;;25.35;;
28766;SDS011;15921;52.034;20.650;2024-03-02T13:27:35;50.95;;;25.67;;
28766;SDS011;15921;52.034;20.650;2024-03-02T13:30:01;53.20;;;27.13;;
28766;SDS011;15921;52.034;20.650;2024-03-02T13:32:31;50.85;;;25.27;;
28766;SDS011;15921;52.034;20.650;2024-03-02T13:34:57;56.00;;;27.50;;
28766;SDS011;15921;52.034;20.650;2024-03-02T13:37:23;46.80;;;24.85;;
28766;SDS011;15921;52.034;20.650;2024-03-02T13:39:49;49.17;;;25.05;;
28766;SDS011;15921;52.034;20.650;2024-03-02T13:42:14;60.42;;;27.38;;
28766;SDS011;15921;52.034;20.650;2024-03-02T13:44:40;52.28;;;27.85;;
28766;SDS011;15921;52.034;20.650;2024-03-02T13:47:10;55.95;;;27.35;;
28766;SDS011;15921;52.034;20.650;2024-03-02T13:49:36;56.13;;;28.52;;
28766;SDS011;15921;52.034;20.650;2024-03-02T13:52:03;57.22;;;27.15;;
28766;SDS011;15921;52.034;20.650;2024-03-02T13:54:37;55.33;;;28.42;;
28766;SDS011;15921;52.034;20.650;2024-03-02T13:57:04;65.43;;;28.60;;
28766;SDS011;15921;52.034;20.650;2024-03-02T13:59:30;59.60;;;28.50;;
28766;SDS011;15921;52.034;20.650;2024-03-02T14:01:56;62.33;;;30.15;;
28766;SDS011;15921;52.034;20.650;2024-03-02T14:04:22;59.50;;;28.40;;
28766;SDS011;15921;52.034;20.650;2024-03-02T14:06:48;58.47;;;29.00;;
28766;SDS011;15921;52.034;20.650;2024-03-02T14:09:13;59.38;;;28.25;;
28766;SDS011;15921;52.034;20.650;2024-03-02T14:11:40;54.35;;;27.13;;
28766;SDS011;15921;52.034;20.650;2024-03-02T14:14:05;51.92;;;27.15;;